createdAt,value
2022-09-02T00:01:56.570Z,9.85
2022-09-02T00:04:27.405Z,9.82
2022-09-02T00:06:57.407Z,9.83
2022-09-02T00:09:26.042Z,9.81
2022-09-02T00:11:55.049Z,9.78
2022-09-02T00:14:27.675Z,9.68
2022-09-02T00:16:56.206Z,9.74
2022-09-02T00:19:25.817Z,9.67
2022-09-02T00:21:55.331Z,9.82
2022-09-02T00:24:25.048Z,9.84
2022-09-02T00:26:56.624Z,9.89
2022-09-02T00:29:26.530Z,9.91
2022-09-02T00:31:54.207Z,9.95
2022-09-02T00:34:22.047Z,9.91
2022-09-02T00:36:49.581Z,9.82
2022-09-02T00:39:17.311Z,9.89
2022-09-02T00:41:45.665Z,9.94
2022-09-02T00:44:16.194Z,9.95
2022-09-02T00:46:44.677Z,9.94
2022-09-02T00:49:25.217Z,9.88
2022-09-02T00:52:14.232Z,9.96
2022-09-02T00:54:48.669Z,10.01
2022-09-02T00:57:22.214Z,10.00
2022-09-02T00:59:55.764Z,10.00
2022-09-02T01:02:25.429Z,10.00
2022-09-02T01:04:56.955Z,9.97
2022-09-02T01:07:29.063Z,10.07
2022-09-02T01:10:00.838Z,10.05
2022-09-02T01:12:31.747Z,10.04
2022-09-02T01:14:59.974Z,9.95
2022-09-02T01:17:30.907Z,9.93
2022-09-02T01:20:05.017Z,9.91
2022-09-02T01:22:34.521Z,9.94
2022-09-02T01:25:08.217Z,9.89
2022-09-02T01:27:35.799Z,9.93
2022-09-02T01:30:05.313Z,9.83
2022-09-02T01:32:32.932Z,9.75
2022-09-02T01:35:00.469Z,9.62
2022-09-02T01:37:28.179Z,9.53
2022-09-02T01:39:57.324Z,9.63
2022-09-02T01:42:26.053Z,9.54
2022-09-02T01:44:54.477Z,9.56
2022-09-02T01:47:26.869Z,9.46
2022-09-02T01:49:55.838Z,9.44
2022-09-02T01:52:24.708Z,9.39
2022-09-02T01:54:55.166Z,9.50
2022-09-02T01:57:26.039Z,9.43
2022-09-02T01:59:55.371Z,9.51
2022-09-02T02:02:23.761Z,9.46
2022-09-02T02:04:53.843Z,9.50
2022-09-02T02:07:25.448Z,9.47
2022-09-02T02:09:53.080Z,9.49
2022-09-02T02:12:24.603Z,9.53
2022-09-02T02:14:55.640Z,9.57
2022-09-02T02:17:27.766Z,9.55
2022-09-02T02:19:55.444Z,9.52
2022-09-02T02:22:23.391Z,9.62
2022-09-02T02:24:50.954Z,9.57
2022-09-02T02:27:18.524Z,9.45
2022-09-02T02:29:46.170Z,9.44
2022-09-02T02:32:14.674Z,9.46
2022-09-02T02:34:43.542Z,9.39
2022-09-02T02:37:15.147Z,9.41
2022-09-02T02:39:46.219Z,9.42
2022-09-02T02:42:16.060Z,9.50
2022-09-02T02:44:51.395Z,9.55
2022-09-02T02:47:21.174Z,9.57
2022-09-02T02:49:48.803Z,9.55
2022-09-02T02:52:17.325Z,9.60
2022-09-02T02:54:44.960Z,9.54
2022-09-02T02:57:14.685Z,9.44
2022-09-02T02:59:42.239Z,9.56
2022-09-02T03:02:12.519Z,9.55
2022-09-02T03:04:43.146Z,9.47
2022-09-02T03:07:10.992Z,9.57
2022-09-02T03:09:39.104Z,9.53
2022-09-02T03:12:07.552Z,9.53
2022-09-02T03:14:37.783Z,9.58
2022-09-02T03:17:07.283Z,9.60
2022-09-02T03:19:35.097Z,9.60
2022-09-02T03:22:06.326Z,9.64
2022-09-02T03:24:34.686Z,9.60
2022-09-02T03:27:05.285Z,9.51
2022-09-02T03:29:38.253Z,9.60
2022-09-02T03:32:08.820Z,9.56
2022-09-02T03:34:37.174Z,9.56
2022-09-02T03:37:05.049Z,9.57
2022-09-02T03:39:32.682Z,9.69
2022-09-02T03:42:00.255Z,9.72
2022-09-02T03:44:33.303Z,9.73
2022-09-02T03:47:01.006Z,9.84
2022-09-02T03:49:28.943Z,9.87
2022-09-02T03:51:56.601Z,9.91
2022-09-02T03:54:24.536Z,9.95
2022-09-02T03:56:52.370Z,9.88
2022-09-02T03:59:19.998Z,9.92
2022-09-02T04:01:48.159Z,9.96
2022-09-02T04:04:18.681Z,10.08
2022-09-02T04:06:51.402Z,10.09
2022-09-02T04:09:22.430Z,10.13
2022-09-02T04:11:50.100Z,10.19
2022-09-02T04:14:17.748Z,10.28
2022-09-02T04:16:45.345Z,10.33
2022-09-02T04:19:14.504Z,10.36
2022-09-02T04:21:42.804Z,10.34
2022-09-02T04:24:14.963Z,10.19
2022-09-02T04:26:46.740Z,10.25
2022-09-02T04:29:17.582Z,10.23
2022-09-02T04:31:49.267Z,10.29
2022-09-02T04:34:17.296Z,10.23
2022-09-02T04:36:45.557Z,10.29
2022-09-02T04:39:13.949Z,10.26
2022-09-02T04:41:42.624Z,10.25
2022-09-02T04:44:12.871Z,10.27
2022-09-02T04:46:43.471Z,10.45
2022-09-02T04:49:18.551Z,10.61
2022-09-02T04:51:47.373Z,10.67
2022-09-02T04:54:15.397Z,10.55
2022-09-02T04:56:46.866Z,10.57
2022-09-02T04:59:15.228Z,10.48
2022-09-02T05:01:52.056Z,10.52
2022-09-02T05:04:24.757Z,10.47
2022-09-02T05:06:53.310Z,10.54
2022-09-02T05:09:24.320Z,10.51
2022-09-02T05:12:01.003Z,10.58
2022-09-02T05:14:33.358Z,10.65
2022-09-02T05:17:07.613Z,10.72
2022-09-02T05:19:38.990Z,10.72
2022-09-02T05:22:07.161Z,10.71
2022-09-02T05:24:38.786Z,10.69
2022-09-02T05:27:12.162Z,10.67
2022-09-02T05:29:45.129Z,10.70
2022-09-02T05:32:13.485Z,10.64
2022-09-02T05:34:41.240Z,10.64
2022-09-02T05:37:08.934Z,10.54
2022-09-02T05:39:37.675Z,10.58
2022-09-02T05:42:07.355Z,10.68
2022-09-02T05:44:37.285Z,10.86
2022-09-02T05:47:06.421Z,10.97
2022-09-02T05:49:34.218Z,11.02
2022-09-02T05:52:10.348Z,11.13
2022-09-02T05:54:44.859Z,11.13
2022-09-02T05:57:17.721Z,11.13
2022-09-02T06:00:07.666Z,11.01
2022-09-02T06:02:50.426Z,11.16
2022-09-02T06:05:24.497Z,11.29
2022-09-02T06:08:00.276Z,11.37
2022-09-02T06:10:28.182Z,11.40
2022-09-02T06:12:55.856Z,11.41
2022-09-02T06:15:30.992Z,11.54
2022-09-02T06:18:04.004Z,11.50
2022-09-02T06:20:37.208Z,11.50
2022-09-02T06:23:04.883Z,11.26
2022-09-02T06:25:35.979Z,11.19
2022-09-02T06:28:07.203Z,11.14
2022-09-02T06:30:41.065Z,11.05
2022-09-02T06:33:17.310Z,11.17
2022-09-02T06:35:46.551Z,11.05
2022-09-02T06:38:19.628Z,11.20
2022-09-02T06:40:53.884Z,11.13
2022-09-02T06:43:42.353Z,11.24
2022-09-02T06:46:25.941Z,11.26
2022-09-02T06:48:56.400Z,11.31
2022-09-02T06:51:28.534Z,11.45
2022-09-02T06:53:58.225Z,11.89
2022-09-02T06:56:29.272Z,12.32
2022-09-02T06:58:57.398Z,12.58
2022-09-02T07:01:37.797Z,12.73
2022-09-02T07:04:24.311Z,13.16
2022-09-02T07:06:54.973Z,13.62
2022-09-02T07:09:34.044Z,13.97
2022-09-02T07:12:09.061Z,14.12
2022-09-02T07:14:43.963Z,14.06
2022-09-02T07:17:21.923Z,13.94
2022-09-02T07:19:56.023Z,13.72
2022-09-02T07:22:24.563Z,13.52
2022-09-02T07:24:52.281Z,13.94
2022-09-02T07:27:23.784Z,14.85
2022-09-02T07:29:51.894Z,16.33
2022-09-02T07:32:19.601Z,17.46
2022-09-02T07:34:48.763Z,18.14
2022-09-02T07:37:16.539Z,18.09
2022-09-02T07:39:47.688Z,17.78
2022-09-02T07:42:16.986Z,17.46
2022-09-02T07:44:45.160Z,16.87
2022-09-02T07:47:13.262Z,16.59
2022-09-02T07:52:35.040Z,16.94
2022-09-02T07:55:06.198Z,16.39
2022-09-02T07:57:35.367Z,15.71
2022-09-02T08:00:06.038Z,15.08
2022-09-02T08:02:41.903Z,14.49
2022-09-02T08:05:13.314Z,14.22
2022-09-02T08:07:40.983Z,14.47
2022-09-02T08:10:11.181Z,15.89
2022-09-02T08:12:42.120Z,17.88
2022-09-02T08:15:12.060Z,19.53
2022-09-02T08:17:48.670Z,21.01
2022-09-02T08:20:18.260Z,21.87
2022-09-02T08:22:50.822Z,22.61
2022-09-02T08:25:26.947Z,23.55
2022-09-02T08:27:57.002Z,23.78
2022-09-02T08:30:24.794Z,23.14
2022-09-02T08:32:52.425Z,21.93
2022-09-02T08:35:21.074Z,20.59
2022-09-02T08:37:48.862Z,20.76
2022-09-02T08:40:20.642Z,21.78
2022-09-02T08:42:56.558Z,22.67
2022-09-02T08:45:30.455Z,22.80
2022-09-02T08:48:27.941Z,22.65
2022-09-02T08:51:03.433Z,21.78
2022-09-02T08:53:46.763Z,21.93
2022-09-02T08:56:17.575Z,22.59
2022-09-02T08:58:58.730Z,23.10
2022-09-02T09:01:50.848Z,24.42
2022-09-02T09:04:57.595Z,24.43
2022-09-02T09:07:53.722Z,23.75
2022-09-02T09:10:27.270Z,24.09
2022-09-02T09:13:32.326Z,24.56
2022-09-02T09:16:12.771Z,24.98
2022-09-02T09:19:10.949Z,24.16
2022-09-02T09:21:40.977Z,22.42
2022-09-02T09:24:21.051Z,21.61
2022-09-02T09:26:48.985Z,20.92
2022-09-02T09:29:16.888Z,20.16
2022-09-02T09:31:47.286Z,19.28
2022-09-02T09:34:23.845Z,18.77
2022-09-02T09:36:56.168Z,18.16
2022-09-02T09:39:30.301Z,17.50
2022-09-02T09:42:03.924Z,16.98
2022-09-02T09:44:46.775Z,17.42
2022-09-02T09:47:23.317Z,19.77
2022-09-02T09:50:09.779Z,22.38
2022-09-02T09:52:38.558Z,24.72
2022-09-02T09:55:14.713Z,26.41
2022-09-02T09:57:48.089Z,27.75
2022-09-02T10:00:28.356Z,29.08
2022-09-02T10:02:58.909Z,29.82
2022-09-02T10:05:40.512Z,30.20
2022-09-02T10:08:29.003Z,28.37
2022-09-02T10:11:19.748Z,25.85
2022-09-02T10:13:50.686Z,23.55
2022-09-02T10:16:49.426Z,21.76
2022-09-02T10:19:44.430Z,19.96
2022-09-02T10:23:00.010Z,19.84
2022-09-02T10:25:50.212Z,22.77
2022-09-02T10:28:24.025Z,24.19
2022-09-02T10:31:49.085Z,26.11
2022-09-02T10:34:40.334Z,26.81
2022-09-02T10:37:23.995Z,25.25
2022-09-02T10:40:10.404Z,24.67
2022-09-02T10:43:07.421Z,26.36
2022-09-02T10:45:46.699Z,27.67
2022-09-02T10:48:27.661Z,27.26
2022-09-02T10:51:08.057Z,27.30
2022-09-02T10:53:52.894Z,27.31
2022-09-02T10:56:26.839Z,28.45
2022-09-02T10:59:23.948Z,29.79
2022-09-02T11:02:21.018Z,30.02
2022-09-02T11:04:56.872Z,31.09
2022-09-02T11:07:35.389Z,31.64
2022-09-02T11:10:16.247Z,31.34
2022-09-02T11:12:57.497Z,31.65
2022-09-02T11:15:40.145Z,31.65
2022-09-02T11:18:36.604Z,32.27
2022-09-02T11:21:25.348Z,32.65
2022-09-02T11:24:05.495Z,33.61
2022-09-02T11:26:54.484Z,34.54
2022-09-02T11:29:57.123Z,33.86
2022-09-02T11:32:44.392Z,34.18
2022-09-02T11:35:27.052Z,34.53
2022-09-02T11:38:06.240Z,34.83
2022-09-02T11:44:15.467Z,33.84
2022-09-02T11:46:43.435Z,31.68
2022-09-02T11:49:51.462Z,31.18
2022-09-02T11:52:35.656Z,28.22
2022-09-02T11:55:22.793Z,26.18
2022-09-02T11:57:57.750Z,25.12
2022-09-02T12:01:01.321Z,28.00
2022-09-02T12:03:52.046Z,26.76
2022-09-02T12:06:27.158Z,24.76
2022-09-02T12:08:55.256Z,23.85
2022-09-02T12:11:50.864Z,26.39
2022-09-02T12:14:24.153Z,27.21
2022-09-02T12:17:07.091Z,27.16
2022-09-02T12:19:45.464Z,25.38
2022-09-02T12:22:18.806Z,25.52
2022-09-02T12:24:54.800Z,25.68
2022-09-02T12:27:36.870Z,24.33
2022-09-02T12:30:09.502Z,23.19
2022-09-02T12:32:46.379Z,22.80
2022-09-02T12:35:33.005Z,21.76
2022-09-02T12:38:11.348Z,20.95
2022-09-02T12:40:55.140Z,20.56
2022-09-02T12:43:29.395Z,19.73
2022-09-02T12:46:07.149Z,19.33
2022-09-02T12:48:45.192Z,18.91
2022-09-02T12:51:51.149Z,19.24
2022-09-02T12:54:27.128Z,21.92
2022-09-02T12:56:55.045Z,24.14
2022-09-02T12:59:33.693Z,27.04
2022-09-02T13:02:15.282Z,28.93
2022-09-02T13:05:31.233Z,28.67
2022-09-02T13:08:27.155Z,25.18
2022-09-02T13:11:16.981Z,22.62
2022-09-02T13:14:20.034Z,20.48
2022-09-02T13:17:36.003Z,19.03
2022-09-02T13:20:24.930Z,17.88
2022-09-02T13:23:11.291Z,17.32
2022-09-02T13:25:57.796Z,16.84
2022-09-02T13:28:50.137Z,16.50
2022-09-02T13:31:23.916Z,16.27
2022-09-02T13:34:08.196Z,16.21
2022-09-02T13:36:41.114Z,15.91
2022-09-02T13:39:19.132Z,15.73
2022-09-02T13:41:51.081Z,15.41
2022-09-02T13:44:31.133Z,15.22
2022-09-02T13:47:17.636Z,15.07
2022-09-02T13:49:47.820Z,14.92
2022-09-02T13:52:19.513Z,14.94
2022-09-02T13:54:54.111Z,14.92
2022-09-02T13:57:32.169Z,14.93
2022-09-02T14:00:00.008Z,14.82
2022-09-02T14:02:36.722Z,14.79
2022-09-02T14:05:20.559Z,14.77
2022-09-02T14:07:53.951Z,14.74
2022-09-02T14:10:24.734Z,14.85
2022-09-02T14:12:52.965Z,14.92
2022-09-02T14:15:47.158Z,15.01
2022-09-02T14:18:27.289Z,14.90
2022-09-02T14:21:02.303Z,14.79
2022-09-02T14:23:35.921Z,14.68
2022-09-02T14:26:07.461Z,14.58
2022-09-02T14:28:36.757Z,14.44
2022-09-02T14:31:27.199Z,14.33
2022-09-02T14:33:57.386Z,14.27
2022-09-02T14:36:25.346Z,14.16
2022-09-02T14:38:57.598Z,14.13
2022-09-02T14:41:28.554Z,14.09
2022-09-02T14:44:08.798Z,13.99
2022-09-02T14:46:44.959Z,13.95
2022-09-02T14:49:30.039Z,13.93
2022-09-02T14:52:01.398Z,13.82
2022-09-02T14:54:40.710Z,13.82
2022-09-02T14:57:39.294Z,13.89
2022-09-02T15:00:20.265Z,13.80
2022-09-02T15:02:57.157Z,13.84
2022-09-02T15:05:25.364Z,13.77
2022-09-02T15:07:53.483Z,13.81
2022-09-02T15:10:21.781Z,13.77
2022-09-02T15:12:53.135Z,13.78
2022-09-02T15:15:21.330Z,13.70
2022-09-02T15:17:52.869Z,13.59
2022-09-02T15:20:24.924Z,13.49
2022-09-02T15:23:06.925Z,13.43
2022-09-02T15:25:35.305Z,13.40
2022-09-02T15:28:06.650Z,13.33
2022-09-02T15:30:40.896Z,13.33
2022-09-02T15:33:16.691Z,13.29
